AirNav   Bose ProFlight Series 2 Headset
 
 852 users online  

PA41 Butler Memorial Hospital Heliport
Butler, Pennsylvania, USA

GOING TO BUTLER?


FAA INFORMATION EFFECTIVE 02 JANUARY 2020

Location

FAA Identifier: PA41
Lat/Long: 40-52-00.9660N 079-52-47.6220W
40-52.016100N 079-52.793700W
40.8669350,-79.8798950
(estimated)
Elevation: 1190 ft. / 363 m (estimated)
Variation: 09W (2000)
Time zone: UTC -5 (UTC -4 during Daylight Saving Time)
Zip code: 16001

Heliport Operations

Heliport use: Private use. Permission required prior to landing
Activation date: 08/1997
Control tower: no
ARTCC: CLEVELAND CENTER
FSS: ALTOONA FLIGHT SERVICE STATION
NOTAMs facility: FDC (NOTAM-D service not available)
Attendance: UNATNDD
Wind indicator: yes
Segmented circle: yes

Heliport Communications

PITTSBURGH APPROACH: 124.75
PITTSBURGH DEPARTURE: 124.75
CERUL DP: 124.75
WX AWOS-3PT at BTP (6 nm SW): 121.450 (724-586-6434)
WX AWOS-3PT at PJC (13 nm W): 118.45 (724-452-5304)
  • APCH/DEP SVC PRVDD BY PITTSBURGH INTL ATCT (PIT) 124.75 338.2

Nearby radio navigation aids

VOR radial/distance  VOR name  Freq  Var
EWCr088/15.3ELLWOOD CITY VOR/DME115.8008W
CIPr235/25.4CLARION VOR/DME112.9006W
FKLr188/(34.3)FRANKLIN VOR109.6006W
AGCr021/36.1ALLEGHENY VOR/DME110.0009W

 
NDB name  Hdg/Dist  Freq  Var  ID
CASTLE120/26.027209WUCP ..- -.-. .--.

Heliport Services

Runway Information

Helipad H1

Dimensions: 65 x 65 ft. / 20 x 20 m
Surface: asphalt, in fair condition
Latitude: 40-52.016100N
Longitude: 079-52.793700W
Elevation: 1190.0 ft.
Traffic pattern: leftleft

Heliport Ownership and Management from official FAA records

Ownership: Privately-owned
Owner: BUTLER MEMORIAL HOSPITAL
ONE HOSPITAL WAY
BUTLER, PA 16001
Phone (724) 284-4244
Manager: FACILITIES MANAGEMENT
ONE HOSPITAL WAY
BUTLER, PA 16001
Phone (724) 284-4244

Additional Remarks

A52-H1 125 FT SMOKE STACK LGTD 160 FT FM HELIPAD.
FOR CD CTC PITTSBURGH APCH AT 412-472-5591

Instrument Procedures

There are no published instrument procedures at PA41.

Some nearby airports with instrument procedures:

KBTP - Pittsburgh/Butler Regional Airport (6 nm SW)
KPJC - Zelienople Municipal Airport (13 nm W)
6P7 - McVille Airport (15 nm SE)
29D - Grove City Airport (21 nm NW)
KBVI - Beaver County Airport (24 nm W)
 
Loc | Ops | Rwys | IFR | FBO | Links
Com | Nav | Svcs | Stats | Notes
Area around PA41 (Butler Memorial Hospital Heliport)
 
Road maps at: MapQuest Bing Google
 
Aerial photo
No photo
 
Sectional chart

 
Airport distance calculator
Flying to Butler Memorial Hospital Heliport? Find the distance to fly.

From to PA41

Sunrise and sunset
Times for 21-Jan-2020
 Local
(UTC-5)
 Zulu
(UTC)
Morning civil twilight07:1012:10
Sunrise07:4012:40
Sunset17:2222:22
Evening civil twilight17:5222:52

Current date and time
Zulu (UTC)  22-Jan-2020 03:55:13
Local (UTC-5)  21-Jan-2020 22:55:13
 
METAR
KBTP 
7nm SW 
220256Z AUTO 00000KT 10SM CLR M11/M13 A3049 RMK AO2 SLP353 T11111128 58001 FZRANO
KPJC 
13nm W 
220335Z AUTO 00000KT 10SM CLR M11/M11 A3050 RMK AO2
TAF
KBVI 
24nm W 
211726Z 2118/2218 27004KT P6SM -SHSN OVC025 FM212100 28005KT P6SM BKN120 FM221200 18003KT P6SM SKC
KPIT 
28nm SW 
212100Z 2121/2224 28006KT P6SM BKN025 FM212300 27003KT P6SM SKC FM221600 17003KT P6SM SKC
KFKL 
30nm N 
211726Z 2118/2218 28006KT P6SM -SHSN OVC025 FM212300 27005KT P6SM BKN040 FM220300 26004KT P6SM BKN070 FM221600 19004KT P6SM SKC
NOTAMs
Click for the latest NOTAMs
NOTAMs are issued by the DoD/FAA and will open in a separate window not controlled by AirNav.

 

 
 

Would you like to see your business listed on this page?

 If your business provides an interesting product or service to pilots, flight crews, aircraft, or users of the Butler Memorial Hospital Heliport, you should consider listing it here.  To start the listing process, click on the button below
 
Add a business
 

Other Pages about Butler Memorial Hospital Heliport

Update a link
 
Copyright © AirNav, LLC. All rights reserved. Privacy Policy  Contact